Time;durP1;ratioP1;P1;durP2;ratioP2;P2;SDS_P1;SDS_P2;PMS_P1;PMS_P2;Temp;Humidity;BMP_temperature;BMP_pressure;BME280_temperature;BME280_humidity;BME280_pressure;Samples;Min_cycle;Max_cycle;Signal;HPM_P1;HPM_P2
2024/01/17 00:01:23;;;;;;;16.70;9.50;;;;;;;-3.59;100.00;100197.97;5021034;28;20030;-65
2024/01/17 00:03:48;;;;;;;14.65;9.32;;;;;;;-3.59;100.00;100195.38;5018345;28;20057;-64
2024/01/17 00:06:13;;;;;;;16.23;9.43;;;;;;;-3.59;100.00;100187.59;5019083;28;20038;-64
2024/01/17 00:08:39;;;;;;;16.17;9.20;;;;;;;-3.58;100.00;100194.50;5019028;28;20112;-64
2024/01/17 00:11:04;;;;;;;15.85;10.10;;;;;;;-3.57;100.00;100187.53;5020925;28;20026;-64
2024/01/17 00:13:29;;;;;;;14.60;9.90;;;;;;;-3.57;100.00;100187.53;5021491;28;20065;-64
2024/01/17 00:15:55;;;;;;;14.38;9.95;;;;;;;-3.56;100.00;100184.06;5021911;28;20033;-64
2024/01/17 00:18:20;;;;;;;15.48;9.52;;;;;;;-3.58;100.00;100176.31;5017629;28;20113;-64
2024/01/17 00:20:45;;;;;;;17.67;9.85;;;;;;;-3.58;100.00;100162.47;5021905;28;20204;-64
2024/01/17 00:23:11;;;;;;;14.82;8.98;;;;;;;-3.59;100.00;100161.63;5021976;28;20026;-64
2024/01/17 00:25:36;;;;;;;15.90;9.13;;;;;;;-3.61;100.00;100150.44;5019437;28;20052;-64
2024/01/17 00:28:01;;;;;;;15.43;9.50;;;;;;;-3.63;100.00;100143.59;5021905;28;20440;-64
2024/01/17 00:30:27;;;;;;;13.57;9.13;;;;;;;-3.66;100.00;100144.53;5023991;28;20026;-64
2024/01/17 00:32:52;;;;;;;16.10;9.88;;;;;;;-3.66;100.00;100141.06;5020119;28;20014;-64
2024/01/17 00:35:18;;;;;;;14.73;9.02;;;;;;;-3.68;100.00;100135.97;5021169;28;20040;-64
2024/01/17 00:37:43;;;;;;;16.98;9.27;;;;;;;-3.73;100.00;100127.44;5017581;28;20026;-64
2024/01/17 00:40:10;;;;;;;16.08;9.43;;;;;;;-3.75;100.00;100111.94;5020578;28;20033;-64
2024/01/17 00:42:35;;;;;;;17.83;10.07;;;;;;;-3.77;100.00;100118.06;5014822;28;20026;-64
2024/01/17 00:45:03;;;;;;;13.32;8.95;;;;;;;-3.79;100.00;100101.69;5022593;28;20120;-64
2024/01/17 00:47:28;;;;;;;15.73;9.15;;;;;;;-3.79;100.00;100104.28;5015961;28;20140;-64
2024/01/17 00:49:53;;;;;;;15.40;9.23;;;;;;;-3.79;100.00;100102.53;5006924;28;20068;-64
2024/01/17 00:52:19;;;;;;;17.13;8.65;;;;;;;-3.78;100.00;100098.19;5017063;28;20403;-64
2024/01/17 00:54:44;;;;;;;14.15;8.65;;;;;;;-3.78;100.00;100090.38;5022076;28;20120;-64
2024/01/17 00:57:09;;;;;;;15.52;9.25;;;;;;;-3.81;100.00;100083.56;5013403;28;20053;-64
2024/01/17 00:59:35;;;;;;;15.90;9.25;;;;;;;-3.82;100.00;100075.81;5020949;28;20091;-64
2024/01/17 01:02:02;;;;;;;15.80;9.13;;;;;;;-3.84;100.00;100065.50;5017715;28;20044;-64
2024/01/17 01:04:27;;;;;;;15.13;9.00;;;;;;;-3.87;100.00;100062.13;5016932;28;20053;-64
2024/01/17 01:06:53;;;;;;;13.85;8.40;;;;;;;-3.88;100.00;100063.03;5016672;28;20472;-64
2024/01/17 01:09:18;;;;;;;12.75;9.07;;;;;;;-3.91;100.00;100062.22;5023434;28;20122;-64
2024/01/17 01:11:43;;;;;;;15.82;8.75;;;;;;;-3.92;100.00;100065.72;5020857;28;20049;-64
2024/01/17 01:14:08;;;;;;;16.00;9.05;;;;;;;-3.93;100.00;100064.03;5019806;28;20463;-64
2024/01/17 01:16:34;;;;;;;15.52;9.23;;;;;;;-3.94;100.00;100061.47;5017925;28;20029;-64
2024/01/17 01:18:59;;;;;;;16.30;9.13;;;;;;;-3.96;100.00;100058.09;5019625;28;20030;-64
2024/01/17 01:21:24;;;;;;;13.88;9.10;;;;;;;-3.94;100.00;100061.47;5017253;28;20072;-64
2024/01/17 01:23:50;;;;;;;13.73;8.95;;;;;;;-3.95;100.00;100057.16;5017904;28;20069;-64
2024/01/17 01:26:15;;;;;;;14.88;8.40;;;;;;;-3.97;100.00;100051.19;5015921;28;20491;-64
2024/01/17 01:28:40;;;;;;;13.07;8.82;;;;;;;-3.99;100.00;100040.00;5018533;28;20083;-63
2024/01/17 01:31:06;;;;;;;14.75;9.13;;;;;;;-4.00;100.00;100044.31;5016946;28;20030;-63
2024/01/17 01:33:32;;;;;;;12.32;8.35;;;;;;;-4.02;100.00;100037.50;5016081;28;20025;-63
2024/01/17 01:35:57;;;;;;;14.60;8.55;;;;;;;-4.02;100.00;100037.50;5016355;28;20037;-64
2024/01/17 01:38:22;;;;;;;11.32;8.60;;;;;;;-4.04;100.00;100045.31;5018093;28;20025;-63
2024/01/17 01:40:47;;;;;;;11.65;8.30;;;;;;;-4.06;100.00;100036.75;5017037;28;20025;-63
2024/01/17 01:43:20;;;;;;;16.10;8.52;;;;;;;-4.06;100.00;100039.34;5017324;28;20433;-63
2024/01/17 01:46:11;;;;;;;21.92;8.75;;;;;;;-4.05;100.00;100033.25;5015070;28;20033;-63
2024/01/17 01:48:36;;;;;;;16.90;8.40;;;;;;;-4.08;100.00;100033.31;5014863;28;20030;-63
2024/01/17 01:51:03;;;;;;;13.70;8.70;;;;;;;-4.10;100.00;100046.38;5017770;28;20045;-64
2024/01/17 01:53:30;;;;;;;11.55;8.35;;;;;;;-4.10;100.00;100035.13;5018708;28;20049;-63
2024/01/17 01:55:56;;;;;;;15.60;8.52;;;;;;;-4.09;100.00;100034.25;5020076;28;20025;-63
2024/01/17 01:58:23;;;;;;;15.20;9.57;;;;;;;-4.09;100.00;100031.66;5020021;28;20037;-63
2024/01/17 02:00:50;;;;;;;14.30;8.80;;;;;;;-4.11;100.00;100026.50;5019117;28;20033;-63
2024/01/17 02:03:15;;;;;;;14.23;8.20;;;;;;;-4.11;100.00;100023.06;5013492;28;20029;-63
2024/01/17 02:05:42;;;;;;;13.80;9.10;;;;;;;-4.09;100.00;100034.25;5014642;28;20029;-63
2024/01/17 02:08:08;;;;;;;19.08;8.80;;;;;;;-4.06;100.00;100025.50;5019161;28;20034;-63
2024/01/17 02:10:35;;;;;;;17.65;9.48;;;;;;;-4.04;100.00;100008.19;5013549;28;20511;-63
2024/01/17 02:13:00;;;;;;;16.30;8.50;;;;;;;-4.02;100.00;100017.59;5017452;28;20034;-63
2024/01/17 02:15:25;;;;;;;13.75;8.60;;;;;;;-4.02;100.00;100008.97;5015222;28;20028;-63
2024/01/17 02:17:50;;;;;;;15.75;8.73;;;;;;;-4.03;100.00;100002.94;5015912;28;20018;-63
2024/01/17 02:20:16;;;;;;;14.38;8.68;;;;;;;-4.00;100.00;100002.00;5019574;28;20375;-63
2024/01/17 02:22:41;;;;;;;14.45;8.57;;;;;;;-4.01;100.00;99998.56;5014437;28;20479;-63
2024/01/17 02:25:07;;;;;;;15.73;8.23;;;;;;;-4.01;100.00;99998.56;5015710;28;20022;-63
2024/01/17 02:27:32;;;;;;;10.07;8.43;;;;;;;-4.01;100.00;99993.38;5018130;28;20477;-63
2024/01/17 02:29:57;;;;;;;11.20;8.07;;;;;;;-4.03;100.00;99984.78;5015019;28;20026;-63
2024/01/17 02:32:23;;;;;;;14.20;8.20;;;;;;;-4.03;100.00;99984.78;5022483;28;20514;-63
2024/01/17 02:34:49;;;;;;;14.43;8.63;;;;;;;-4.05;100.00;99970.16;5016192;28;20032;-63
2024/01/17 02:37:15;;;;;;;11.32;7.97;;;;;;;-4.06;100.00;99960.66;5021746;28;20564;-63
2024/01/17 02:39:40;;;;;;;12.73;8.32;;;;;;;-4.06;100.00;99953.75;5019998;28;20109;-63
2024/01/17 02:42:06;;;;;;;17.08;8.88;;;;;;;-4.05;100.00;99954.59;5022875;28;20445;-63
2024/01/17 02:44:31;;;;;;;15.57;8.80;;;;;;;-4.06;100.00;99952.88;5020602;28;20036;-63
2024/01/17 02:46:56;;;;;;;11.93;8.18;;;;;;;-4.09;100.00;99936.53;5015809;28;20026;-63
2024/01/17 02:49:22;;;;;;;12.75;8.75;;;;;;;-4.06;100.00;99938.19;5019602;28;20026;-63
2024/01/17 02:51:47;;;;;;;13.52;8.50;;;;;;;-4.07;100.00;99936.50;5017492;28;20085;-63
2024/01/17 02:54:13;;;;;;;15.13;8.45;;;;;;;-4.07;100.00;99933.06;5025081;28;20049;-63
2024/01/17 02:56:38;;;;;;;10.73;8.15;;;;;;;-4.06;100.00;99930.41;5019891;28;20069;-63
2024/01/17 02:59:03;;;;;;;11.70;8.35;;;;;;;-4.09;100.00;99925.31;5022164;28;20034;-63
2024/01/17 03:01:28;;;;;;;12.48;7.90;;;;;;;-4.10;100.00;99915.84;5025281;28;20030;-63
2024/01/17 03:03:54;;;;;;;14.32;8.38;;;;;;;-4.14;100.00;99907.31;5024685;28;20382;-63
2024/01/17 03:06:19;;;;;;;10.85;7.65;;;;;;;-4.14;100.00;99904.72;5023014;28;20029;-63
2024/01/17 03:08:45;;;;;;;13.95;8.65;;;;;;;-4.12;100.00;99902.06;5018426;28;20034;-63
2024/01/17 03:11:10;;;;;;;13.38;7.82;;;;;;;-4.10;100.00;99903.72;5021970;28;20116;-63
2024/01/17 03:13:35;;;;;;;14.75;8.45;;;;;;;-4.08;100.00;99906.25;5018918;28;20442;-63
2024/01/17 03:16:01;;;;;;;13.52;8.77;;;;;;;-4.09;100.00;99915.78;5021228;28;20048;-63
2024/01/17 03:18:26;;;;;;;12.52;8.45;;;;;;;-4.05;100.00;99913.94;5018892;28;20022;-64
2024/01/17 03:20:51;;;;;;;12.57;7.93;;;;;;;-4.06;100.00;99901.00;5018696;28;20045;-64
2024/01/17 03:23:17;;;;;;;13.45;8.40;;;;;;;-4.05;100.00;99903.56;5024280;28;20032;-63
2024/01/17 03:25:42;;;;;;;13.43;8.32;;;;;;;-4.02;100.00;99905.22;5018805;28;20084;-63
2024/01/17 03:28:07;;;;;;;13.65;7.90;;;;;;;-4.01;100.00;99891.34;5023399;28;20018;-63
2024/01/17 03:30:34;;;;;;;15.90;8.38;;;;;;;-3.97;100.00;99892.97;5018703;28;20018;-63
2024/01/17 03:32:59;;;;;;;15.25;8.07;;;;;;;-3.97;100.00;99883.41;5020759;28;20064;-63
2024/01/17 03:35:25;;;;;;;12.82;7.43;;;;;;;-3.96;100.00;99872.16;5018743;28;20029;-64
2024/01/17 03:37:50;;;;;;;12.02;7.97;;;;;;;-3.95;100.00;99863.50;5024925;28;20060;-63
2024/01/17 03:40:15;;;;;;;12.45;7.97;;;;;;;-3.97;100.00;99861.84;5020588;28;20125;-63
2024/01/17 03:42:41;;;;;;;12.45;7.95;;;;;;;-3.94;100.00;99851.38;5022108;28;20013;-63
2024/01/17 03:45:06;;;;;;;12.38;7.93;;;;;;;-3.94;100.00;99839.22;5019555;28;20130;-63
2024/01/17 03:47:31;;;;;;;12.05;7.40;;;;;;;-3.96;100.00;99829.81;5021652;28;20036;-63
2024/01/17 03:49:57;;;;;;;10.98;7.68;;;;;;;-3.95;100.00;99823.72;5019320;28;20052;-63
2024/01/17 03:52:22;;;;;;;14.68;8.27;;;;;;;-3.95;100.00;99808.16;5021880;28;20132;-63
2024/01/17 03:54:47;;;;;;;13.45;8.25;;;;;;;-3.95;100.00;99803.84;5017742;28;20034;-63
2024/01/17 03:57:14;;;;;;;12.45;7.70;;;;;;;-3.94;100.00;99797.72;5022186;28;20133;-63
2024/01/17 03:59:45;;;;;;;14.88;8.05;;;;;;;-3.94;100.00;99787.34;5018564;28;20109;-63
2024/01/17 04:02:10;;;;;;;13.02;8.32;;;;;;;-3.95;100.00;99790.88;5016609;28;20050;-64
2024/01/17 04:04:39;;;;;;;17.63;8.27;;;;;;;-3.95;100.00;99782.22;5022695;28;20115;-63
2024/01/17 04:07:04;;;;;;;12.98;7.82;;;;;;;-3.96;100.00;99783.13;5019041;28;20021;-63
2024/01/17 04:09:30;;;;;;;9.68;7.38;;;;;;;-3.99;100.00;99776.28;5018052;28;20443;-63
2024/01/17 04:11:55;;;;;;;14.02;7.53;;;;;;;-3.97;100.00;99765.88;5021444;28;20037;-63
2024/01/17 04:14:20;;;;;;;12.75;8.07;;;;;;;-3.99;100.00;99750.34;5019513;28;20033;-63
2024/01/17 04:16:45;;;;;;;12.05;7.97;;;;;;;-3.99;100.00;99739.97;5019048;28;20036;-63
2024/01/17 04:19:11;;;;;;;11.18;7.70;;;;;;;-4.00;100.00;99735.69;5022621;28;20149;-63
2024/01/17 04:21:36;;;;;;;14.20;7.50;;;;;;;-3.99;100.00;99732.19;5020009;28;20530;-63
2024/01/17 04:24:02;;;;;;;13.82;8.80;;;;;;;-3.96;100.00;99729.50;5022004;28;20028;-63
2024/01/17 04:26:27;;;;;;;11.70;7.30;;;;;;;-3.93;100.00;99726.81;5019157;28;20394;-63
2024/01/17 04:28:53;;;;;;;14.05;7.63;;;;;;;-3.92;100.00;99719.84;5022137;28;20030;-63
2024/01/17 04:31:23;;;;;;;12.65;7.90;;;;;;;-3.88;100.00;99718.00;5023961;28;20030;-63
2024/01/17 04:33:49;;;;;;;12.18;7.45;;;;;;;-3.86;100.00;99705.81;5019023;28;20387;-63
2024/01/17 04:36:17;;;;;;;11.38;7.13;;;;;;;-3.86;100.00;99695.44;5020679;28;20033;-63
2024/01/17 04:38:43;;;;;;;11.45;7.47;;;;;;;-3.87;100.00;99688.56;5018664;28;20022;-63
2024/01/17 04:41:11;;;;;;;17.65;8.32;;;;;;;-3.87;100.00;99689.41;5021594;28;20033;-63
2024/01/17 04:43:37;;;;;;;10.93;7.70;;;;;;;-3.86;100.00;99687.66;5020728;28;20030;-63
2024/01/17 04:46:02;;;;;;;10.38;7.18;;;;;;;-3.90;100.00;99689.50;5022668;28;20495;-63
2024/01/17 04:48:27;;;;;;;11.07;7.75;;;;;;;-3.89;100.00;99690.38;5018509;28;20120;-62
2024/01/17 04:50:58;;;;;;;12.90;7.57;;;;;;;-3.90;100.00;99673.97;5021174;28;20025;-63
2024/01/17 04:53:24;;;;;;;12.63;7.45;;;;;;;-3.89;100.00;99667.03;5017879;28;20567;-62
2024/01/17 04:55:49;;;;;;;11.60;7.25;;;;;;;-3.91;100.00;99664.50;5019735;28;20116;-63
2024/01/17 04:58:14;;;;;;;10.38;7.20;;;;;;;-3.91;100.00;99651.53;5015719;28;20108;-62
2024/01/17 05:00:44;;;;;;;11.88;7.15;;;;;;;-3.88;100.00;99640.19;5021811;28;20038;-62
2024/01/17 05:03:09;;;;;;;10.02;7.03;;;;;;;-3.84;100.00;99644.38;5015178;28;20061;-63
2024/01/17 05:05:34;;;;;;;12.95;7.40;;;;;;;-3.82;100.00;99642.56;5021644;28;20053;-62
2024/01/17 05:07:59;;;;;;;14.95;7.38;;;;;;;-3.82;100.00;99639.97;5022153;28;20533;-62
2024/01/17 05:10:25;;;;;;;12.55;7.72;;;;;;;-3.82;100.00;99635.59;5020899;28;20021;-62
2024/01/17 05:12:50;;;;;;;11.55;7.50;;;;;;;-3.79;100.00;99632.06;5020627;28;20560;-63
2024/01/17 05:15:15;;;;;;;14.10;7.45;;;;;;;-3.76;100.00;99629.38;5021205;28;20037;-62
2024/01/17 05:17:40;;;;;;;11.82;7.93;;;;;;;-3.74;100.00;99624.97;5020634;28;20025;-62
2024/01/17 05:20:07;;;;;;;14.43;7.32;;;;;;;-3.71;100.00;99627.44;5019469;28;20087;-62
2024/01/17 05:22:32;;;;;;;12.70;7.57;;;;;;;-3.71;100.00;99619.66;5017375;28;20049;-62
2024/01/17 05:24:57;;;;;;;12.98;7.50;;;;;;;-3.69;100.00;99612.66;5018743;28;20463;-62
2024/01/17 05:27:23;;;;;;;13.05;7.32;;;;;;;-3.66;100.00;99609.09;5017421;28;20037;-62
2024/01/17 05:29:48;;;;;;;14.05;7.78;;;;;;;-3.63;100.00;99607.25;5021351;28;20022;-62
2024/01/17 05:32:14;;;;;;;10.35;7.10;;;;;;;-3.59;100.00;99602.78;5019853;28;20022;-63
2024/01/17 05:34:42;;;;;;;11.95;7.05;;;;;;;-3.59;100.00;99598.44;5021296;28;20022;-63
2024/01/17 05:37:10;;;;;;;11.77;7.30;;;;;;;-3.56;100.00;99584.50;5019124;28;20053;-63
2024/01/17 05:39:35;;;;;;;13.65;7.53;;;;;;;-3.53;100.00;99594.72;5021156;28;20061;-63
2024/01/17 05:42:01;;;;;;;18.25;7.95;;;;;;;-3.50;100.00;99586.00;5020033;28;20073;-63
2024/01/17 05:44:26;;;;;;;13.15;7.43;;;;;;;-3.50;100.00;99580.81;5020837;28;20486;-63
2024/01/17 05:46:51;;;;;;;9.63;7.65;;;;;;;-3.51;100.00;99574.78;5019389;28;20029;-63
2024/01/17 05:49:16;;;;;;;13.27;7.47;;;;;;;-3.49;100.00;99575.56;5018813;28;20102;-63
2024/01/17 05:51:42;;;;;;;12.55;8.00;;;;;;;-3.48;100.00;99576.38;5019495;28;20049;-62
2024/01/17 05:54:07;;;;;;;12.55;7.97;;;;;;;-3.49;100.00;99575.56;5019294;28;20371;-63
2024/01/17 05:56:34;;;;;;;12.77;7.65;;;;;;;-3.53;100.00;99574.84;5015418;28;20026;-63
2024/01/17 05:58:59;;;;;;;12.68;8.13;;;;;;;-3.53;100.00;99564.44;5020724;28;20082;-62
2024/01/17 06:01:24;;;;;;;12.02;7.32;;;;;;;-3.53;100.00;99563.59;5016574;28;20109;-62
2024/01/17 06:03:50;;;;;;;11.43;8.02;;;;;;;-3.53;100.00;99564.44;5019983;28;20034;-62
2024/01/17 06:06:16;;;;;;;13.57;7.47;;;;;;;-3.50;100.00;99560.03;5019300;28;20172;-62
2024/01/17 06:08:42;;;;;;;14.20;8.07;;;;;;;-3.50;100.00;99554.84;5019677;28;20488;-62
2024/01/17 06:11:07;;;;;;;15.13;8.10;;;;;;;-3.54;100.00;99549.78;5012838;28;20060;-62
2024/01/17 06:13:32;;;;;;;10.00;7.38;;;;;;;-3.57;100.00;99546.47;5022842;28;20075;-62
2024/01/17 06:15:58;;;;;;;15.98;7.57;;;;;;;-3.59;100.00;99550.88;5017325;28;20042;-62
2024/01/17 06:18:23;;;;;;;11.52;7.88;;;;;;;-3.59;100.00;99543.91;5017741;28;20048;-62
2024/01/17 06:20:48;;;;;;;13.95;9.13;;;;;;;-3.58;100.00;99539.56;5016931;28;20029;-62
2024/01/17 06:23:14;;;;;;;12.70;8.05;;;;;;;-3.57;100.00;99531.72;5018848;28;20032;-62
2024/01/17 06:25:39;;;;;;;14.50;7.90;;;;;;;-3.57;100.00;99530.88;5015854;28;20032;-62
2024/01/17 06:28:04;;;;;;;13.65;8.23;;;;;;;-3.56;100.00;99532.59;5019760;28;20112;-62
2024/01/17 06:30:30;;;;;;;12.57;7.82;;;;;;;-3.56;100.00;99528.22;5017071;28;20041;-62
2024/01/17 06:32:55;;;;;;;13.32;8.48;;;;;;;-3.55;100.00;99524.75;5019400;28;20042;-61
2024/01/17 06:35:20;;;;;;;11.80;8.40;;;;;;;-3.53;100.00;99525.53;5017503;28;20479;-62
2024/01/17 06:37:46;;;;;;;12.68;8.55;;;;;;;-3.52;100.00;99513.38;5018735;28;20038;-62
2024/01/17 06:40:12;;;;;;;15.52;8.68;;;;;;;-3.51;100.00;99507.28;5019655;28;20026;-62
2024/01/17 06:42:37;;;;;;;12.63;8.15;;;;;;;-3.52;100.00;99497.81;5017310;28;20049;-62
2024/01/17 06:45:03;;;;;;;14.23;8.57;;;;;;;-3.52;100.00;99497.81;5016909;28;20502;-62
2024/01/17 06:47:28;;;;;;;15.48;8.00;;;;;;;-3.53;100.00;99502.16;5011170;28;20049;-62
2024/01/17 06:49:54;;;;;;;13.65;8.57;;;;;;;-3.55;100.00;99498.78;5014823;28;20026;-62
2024/01/17 06:52:19;;;;;;;13.88;8.80;;;;;;;-3.55;100.00;99495.34;5018254;28;20049;-62
2024/01/17 06:54:44;;;;;;;14.73;8.85;;;;;;;-3.54;100.00;99492.69;5016292;28;20040;-62
2024/01/17 06:57:10;;;;;;;13.52;8.73;;;;;;;-3.55;100.00;99493.59;5018774;28;20025;-62
2024/01/17 06:59:35;;;;;;;14.85;9.00;;;;;;;-3.53;100.00;99485.72;5017392;28;20038;-62
2024/01/17 07:02:01;;;;;;;13.95;8.85;;;;;;;-3.51;100.00;99475.28;5014799;28;20108;-62
2024/01/17 07:04:26;;;;;;;13.90;9.40;;;;;;;-3.52;100.00;99469.25;5016631;28;20026;-63
2024/01/17 07:06:51;;;;;;;17.38;9.43;;;;;;;-3.50;100.00;99464.00;5009159;28;20495;-62
2024/01/17 07:09:17;;;;;;;15.07;9.10;;;;;;;-3.53;100.00;99460.63;5021200;28;20025;-61
2024/01/17 07:11:42;;;;;;;14.52;8.45;;;;;;;-3.52;100.00;99453.69;5011177;28;20026;-62
2024/01/17 07:14:08;;;;;;;13.20;8.15;;;;;;;-3.52;100.00;99451.09;5014866;28;20064;-61
2024/01/17 07:16:33;;;;;;;13.70;8.68;;;;;;;-3.50;100.00;99449.28;5012857;28;20554;-61
2024/01/17 07:19:00;;;;;;;17.90;9.55;;;;;;;-3.47;100.00;99448.31;5008840;28;20038;-61
2024/01/17 07:21:25;;;;;;;15.95;8.68;;;;;;;-3.44;100.00;99440.41;5021347;28;20057;-62
2024/01/17 07:23:51;;;;;;;15.65;8.45;;;;;;;-3.41;100.00;99440.28;5016981;28;20064;-62
2024/01/17 07:26:17;;;;;;;13.80;8.40;;;;;;;-3.43;100.00;99439.47;5020293;28;20025;-62
2024/01/17 07:28:42;;;;;;;12.93;8.57;;;;;;;-3.44;100.00;99432.63;5014471;28;20037;-62
2024/01/17 07:31:07;;;;;;;12.98;8.20;;;;;;;-3.47;100.00;99428.38;5016222;28;20432;-62
2024/01/17 07:33:32;;;;;;;15.57;8.93;;;;;;;-3.50;100.00;99412.94;5016153;28;20033;-63
2024/01/17 07:35:58;;;;;;;13.52;8.40;;;;;;;-3.52;100.00;99409.56;5021799;28;20033;-62
2024/01/17 07:38:24;;;;;;;14.00;7.93;;;;;;;-3.56;100.00;99405.44;5020468;28;20459;-62
2024/01/17 07:40:49;;;;;;;12.20;7.72;;;;;;;-3.61;100.00;99399.59;5023759;28;20041;-62
2024/01/17 07:43:17;;;;;;;13.73;7.90;;;;;;;-3.65;100.00;99392.81;5030768;28;20124;-62
2024/01/17 07:45:42;;;;;;;11.13;7.43;;;;;;;-3.68;100.00;99391.22;5026246;28;20365;-62
2024/01/17 07:48:08;;;;;;;17.25;8.65;;;;;;;-3.71;100.00;99383.56;5021951;28;20029;-62
2024/01/17 07:50:33;;;;;;;13.50;8.02;;;;;;;-3.70;100.00;99379.19;5018515;28;20586;-62
2024/01/17 07:53:01;;;;;;;13.20;8.55;;;;;;;-3.68;100.00;99373.03;5021457;28;20049;-62
2024/01/17 07:55:26;;;;;;;11.43;8.60;;;;;;;-3.67;100.00;99366.09;5022690;28;20479;-62
2024/01/17 07:57:51;;;;;;;13.88;8.45;;;;;;;-3.66;100.00;99357.38;5021846;28;20045;-62
2024/01/17 08:00:18;;;;;;;10.90;7.93;;;;;;;-3.64;100.00;99358.19;5024814;28;20060;-61
2024/01/17 08:02:43;;;;;;;14.98;8.85;;;;;;;-3.65;100.00;99357.31;5022422;28;20033;-62
2024/01/17 08:05:11;;;;;;;15.27;8.95;;;;;;;-3.65;100.00;99359.09;5016907;28;20041;-62
2024/01/17 08:07:37;;;;;;;11.85;8.75;;;;;;;-3.65;100.00;99349.53;5018740;28;20076;-62
2024/01/17 08:10:02;;;;;;;11.98;8.60;;;;;;;-3.64;100.00;99347.81;5018962;28;20033;-62
2024/01/17 08:12:27;;;;;;;13.18;8.25;;;;;;;-3.65;100.00;99339.16;5014064;28;20030;-62
2024/01/17 08:14:52;;;;;;;12.40;8.05;;;;;;;-3.65;100.00;99336.56;5018662;28;20045;-61
2024/01/17 08:17:18;;;;;;;10.60;7.47;;;;;;;-3.62;100.00;99340.78;5012774;28;20498;-62
2024/01/17 08:19:43;;;;;;;11.88;8.43;;;;;;;-3.61;100.00;99335.53;5019960;28;20033;-62
2024/01/17 08:22:09;;;;;;;11.00;7.95;;;;;;;-3.60;100.00;99339.81;5020226;28;20052;-61
2024/01/17 08:24:35;;;;;;;13.38;8.85;;;;;;;-3.57;100.00;99338.84;5017288;28;20018;-62
2024/01/17 08:27:00;;;;;;;12.63;7.72;;;;;;;-3.55;100.00;99337.88;5019930;28;20041;-62
2024/01/17 08:29:26;;;;;;;12.00;8.23;;;;;;;-3.53;100.00;99330.00;5017330;28;20426;-62
2024/01/17 08:31:52;;;;;;;13.73;8.77;;;;;;;-3.50;100.00;99326.44;5022504;28;20029;-62
2024/01/17 08:34:20;;;;;;;14.52;8.68;;;;;;;-3.49;100.00;99317.75;5016528;28;20025;-61
2024/01/17 08:36:45;;;;;;;13.68;9.18;;;;;;;-3.49;100.00;99312.56;5020093;28;20040;-60
2024/01/17 08:39:11;;;;;;;14.07;8.68;;;;;;;-3.46;100.00;99315.03;5019022;28;20030;-62
2024/01/17 08:41:36;;;;;;;15.02;8.45;;;;;;;-3.47;100.00;99303.78;5017115;28;20030;-62
2024/01/17 08:44:02;;;;;;;14.57;8.60;;;;;;;-3.44;100.00;99300.25;5022299;28;20026;-62
2024/01/17 08:46:30;;;;;;;12.48;7.75;;;;;;;-3.40;100.00;99301.78;5019739;28;20042;-62
2024/01/17 08:48:55;;;;;;;11.57;8.50;;;;;;;-3.36;100.00;99295.56;5016245;28;20057;-62
2024/01/17 08:51:24;;;;;;;14.10;8.98;;;;;;;-3.31;100.00;99290.13;5020038;28;20103;-62
2024/01/17 08:53:49;;;;;;;13.27;8.52;;;;;;;-3.28;100.00;99280.47;5018028;28;20030;-62
2024/01/17 08:56:15;;;;;;;14.68;8.85;;;;;;;-3.26;100.00;99278.66;5018079;28;20036;-61
2024/01/17 08:58:41;;;;;;;15.25;9.02;;;;;;;-3.22;100.00;99269.78;5020481;28;20026;-61
2024/01/17 09:01:06;;;;;;;13.98;8.93;;;;;;;-3.19;100.00;99269.66;5021343;28;20033;-62
2024/01/17 09:03:34;;;;;;;13.63;8.88;;;;;;;-3.15;100.00;99262.56;5019816;28;20026;-62
2024/01/17 09:06:00;;;;;;;18.15;9.77;;;;;;;-3.13;100.00;99255.56;5020264;28;20494;-62
2024/01/17 09:08:26;;;;;;;14.45;9.13;;;;;;;-3.10;100.00;99249.38;5014221;28;20030;-62
2024/01/17 09:10:51;;;;;;;18.25;9.75;;;;;;;-3.08;100.00;99245.81;5043067;28;20479;-62
2024/01/17 09:13:16;;;;;;;13.30;9.30;;;;;;;-3.06;100.00;99246.56;5015974;28;20038;-62
2024/01/17 09:15:41;;;;;;;15.18;9.30;;;;;;;-3.02;100.00;99247.28;5017663;28;20034;-62
2024/01/17 09:18:07;;;;;;;14.57;9.10;;;;;;;-3.00;99.94;99241.09;5020717;28;20410;-61
2024/01/17 09:20:33;;;;;;;16.40;9.32;;;;;;;-2.97;100.00;99240.94;5018244;28;20049;-61
2024/01/17 09:22:58;;;;;;;13.27;8.80;;;;;;;-2.93;100.00;99238.19;5014650;28;20551;-62
2024/01/17 09:25:24;;;;;;;14.73;9.43;;;;;;;-2.93;100.00;99231.28;5016323;28;20044;-61
2024/01/17 09:27:49;;;;;;;15.70;9.77;;;;;;;-2.89;100.00;99232.78;5013003;28;20051;-62
2024/01/17 09:30:15;;;;;;;14.80;9.02;;;;;;;-2.88;100.00;99229.28;5016268;28;20479;-60
2024/01/17 09:32:41;;;;;;;14.80;9.38;;;;;;;-2.85;100.00;99228.28;5019962;28;20130;-61
2024/01/17 09:35:08;;;;;;;21.23;10.20;;;;;;;-2.85;100.00;99226.56;5015994;28;20022;-61
2024/01/17 09:37:36;;;;;;;15.55;9.55;;;;;;;-2.82;100.00;99228.16;5017528;28;20022;-61
2024/01/17 09:40:01;;;;;;;18.60;10.30;;;;;;;-2.81;99.73;99232.44;5016884;28;20049;-61
2024/01/17 09:42:27;;;;;;;15.93;9.60;;;;;;;-2.80;100.00;99232.38;5009215;28;20069;-61
2024/01/17 09:44:52;;;;;;;15.15;9.73;;;;;;;-2.77;99.80;99227.94;5007189;28;20030;-62
2024/01/17 09:47:18;;;;;;;14.23;9.43;;;;;;;-2.75;99.44;99228.69;5016539;28;20648;-61
2024/01/17 09:49:44;;;;;;;16.48;10.05;;;;;;;-2.74;99.56;99225.19;5019806;28;20107;-62
2024/01/17 09:52:13;;;;;;;15.13;9.35;;;;;;;-2.73;99.59;99221.66;5014765;28;20034;-61
2024/01/17 09:54:42;;;;;;;15.52;9.40;;;;;;;-2.71;99.97;99220.69;5019205;28;20036;-62
2024/01/17 09:57:09;;;;;;;;;;;;;;;-2.64;100.00;99216.88;5020829;28;20033;-61
2024/01/17 09:59:48;;;;;;;12.93;9.02;;;;;;;-2.63;99.58;99209.94;5010719;28;19914;-62
2024/01/17 10:02:15;;;;;;;15.07;9.88;;;;;;;-2.62;99.29;99209.81;5014976;28;20034;-62
2024/01/17 10:04:42;;;;;;;15.93;10.30;;;;;;;-2.59;99.88;99198.47;5019019;28;20148;-62
2024/01/17 10:07:08;;;;;;;13.13;9.77;;;;;;;-2.57;99.25;99198.38;5018165;28;20032;-62
2024/01/17 10:09:34;;;;;;;22.65;14.45;;;;;;;-2.56;98.84;99203.50;5015806;28;20591;-62
2024/01/17 10:11:59;;;;;;;22.17;13.07;;;;;;;-2.53;99.03;99198.16;5020527;28;20104;-61
2024/01/17 10:14:25;;;;;;;15.45;10.35;;;;;;;-2.50;99.32;99197.16;5017367;28;20030;-62
2024/01/17 10:16:50;;;;;;;16.88;10.35;;;;;;;-2.46;98.96;99196.09;5018098;28;20025;-61
2024/01/17 10:19:17;;;;;;;17.25;11.38;;;;;;;-2.42;99.30;99192.41;5022717;28;20087;-60
2024/01/17 10:21:43;;;;;;;18.48;13.27;;;;;;;-2.41;98.77;99191.50;5021314;28;20044;-61
2024/01/17 10:24:09;;;;;;;19.50;12.07;;;;;;;-2.38;98.45;99187.91;5021783;28;20018;-61
2024/01/17 10:26:34;;;;;;;13.18;9.07;;;;;;;-2.39;98.09;99186.25;5016680;28;20719;-61
2024/01/17 10:29:00;;;;;;;15.02;9.98;;;;;;;-2.42;97.67;99176.81;5019804;28;20034;-61
2024/01/17 10:31:25;;;;;;;16.55;9.45;;;;;;;-2.38;98.01;99182.69;5015273;28;20037;-61
2024/01/17 10:33:51;;;;;;;16.92;10.30;;;;;;;-2.34;98.13;99174.69;5018595;28;20033;-61
2024/01/17 10:36:17;;;;;;;15.63;11.18;;;;;;;-2.31;98.33;99174.53;5018058;28;20030;-60
2024/01/17 10:38:42;;;;;;;17.23;10.98;;;;;;;-2.28;97.82;99168.31;5020837;28;20153;-61
2024/01/17 10:41:08;;;;;;;17.58;13.18;;;;;;;-2.29;96.96;99166.66;5018733;28;20025;-61
2024/01/17 10:43:53;;;;;;;15.77;11.05;;;;;;;-2.32;97.42;99159.84;5021382;28;20021;-60
2024/01/17 10:46:18;;;;;;;16.92;10.65;;;;;;;-2.32;97.87;99159.00;5016075;28;20033;-61
2024/01/17 10:48:44;;;;;;;46.15;24.40;;;;;;;-2.30;97.42;99149.34;5014338;28;20597;-62
2024/01/17 10:51:22;;;;;;;22.33;14.10;;;;;;;-2.28;97.81;99147.50;5022589;28;20018;-60
2024/01/17 10:53:49;;;;;;;25.90;15.90;;;;;;;-2.25;98.65;99147.34;5022244;28;20062;-61
2024/01/17 10:56:20;;;;;;;17.90;12.65;;;;;;;-2.23;97.89;99137.75;5012724;28;20484;-62
2024/01/17 10:58:55;;;;;;;19.38;12.23;;;;;;;-2.19;97.76;99135.81;5021899;28;20061;-61
2024/01/17 11:01:25;;;;;;;24.10;18.05;;;;;;;-2.19;97.94;99125.41;5016082;28;20030;-61
2024/01/17 11:03:54;;;;;;;29.30;19.15;;;;;;;-2.15;98.19;99129.53;5020699;28;20184;-61
2024/01/17 11:06:20;;;;;;;25.77;17.80;;;;;;;-2.12;98.23;99127.59;5018222;28;20038;-60
2024/01/17 11:08:46;;;;;;;22.48;14.48;;;;;;;-2.09;97.52;99127.44;5023219;28;20036;-61
2024/01/17 11:11:12;;;;;;;23.65;16.92;;;;;;;-2.06;98.07;99119.47;5022980;28;20030;-61